sensor_id;sensor_type;location;lat;lon;timestamp;P1;durP1;ratioP1;P2;durP2;ratioP2
70505;SDS011;58032;49.820;6.274;2022-12-18T00:01:20;5.03;;;1.30;;
70505;SDS011;58032;49.820;6.274;2022-12-18T00:03:52;3.90;;;2.03;;
70505;SDS011;58032;49.820;6.274;2022-12-18T00:06:20;5.10;;;2.17;;
70505;SDS011;58032;49.820;6.274;2022-12-18T00:08:48;3.87;;;0.80;;
70505;SDS011;58032;49.820;6.274;2022-12-18T00:11:16;5.50;;;1.60;;
70505;SDS011;58032;49.820;6.274;2022-12-18T00:13:44;8.18;;;1.67;;
70505;SDS011;58032;49.820;6.274;2022-12-18T00:16:12;3.40;;;0.98;;
70505;SDS011;58032;49.820;6.274;2022-12-18T00:18:48;5.70;;;1.75;;
70505;SDS011;58032;49.820;6.274;2022-12-18T00:21:16;6.33;;;1.80;;
70505;SDS011;58032;49.820;6.274;2022-12-18T00:23:43;7.40;;;2.15;;
70505;SDS011;58032;49.820;6.274;2022-12-18T00:26:12;9.40;;;2.80;;
70505;SDS011;58032;49.820;6.274;2022-12-18T00:28:42;6.70;;;2.35;;
70505;SDS011;58032;49.820;6.274;2022-12-18T00:31:11;10.50;;;2.30;;
70505;SDS011;58032;49.820;6.274;2022-12-18T00:33:41;8.63;;;2.87;;
70505;SDS011;58032;49.820;6.274;2022-12-18T00:36:10;3.25;;;0.43;;
70505;SDS011;58032;49.820;6.274;2022-12-18T00:38:38;4.55;;;1.00;;
70505;SDS011;58032;49.820;6.274;2022-12-18T00:41:06;7.35;;;1.67;;
70505;SDS011;58032;49.820;6.274;2022-12-18T00:43:36;2.47;;;1.15;;
70505;SDS011;58032;49.820;6.274;2022-12-18T00:46:04;3.43;;;1.57;;
70505;SDS011;58032;49.820;6.274;2022-12-18T00:48:32;7.63;;;2.05;;
70505;SDS011;58032;49.820;6.274;2022-12-18T00:50:59;6.43;;;2.85;;
70505;SDS011;58032;49.820;6.274;2022-12-18T00:53:26;9.52;;;3.15;;
70505;SDS011;58032;49.820;6.274;2022-12-18T00:55:54;11.18;;;2.78;;
70505;SDS011;58032;49.820;6.274;2022-12-18T00:58:21;4.43;;;1.50;;
70505;SDS011;58032;49.820;6.274;2022-12-18T01:00:48;3.35;;;1.23;;
70505;SDS011;58032;49.820;6.274;2022-12-18T01:03:14;7.05;;;2.17;;
70505;SDS011;58032;49.820;6.274;2022-12-18T01:05:43;5.50;;;1.52;;
70505;SDS011;58032;49.820;6.274;2022-12-18T01:08:10;3.55;;;1.35;;
70505;SDS011;58032;49.820;6.274;2022-12-18T01:10:41;2.87;;;1.20;;
70505;SDS011;58032;49.820;6.274;2022-12-18T01:13:08;4.15;;;0.98;;
70505;SDS011;58032;49.820;6.274;2022-12-18T01:15:35;5.35;;;0.70;;
70505;SDS011;58032;49.820;6.274;2022-12-18T01:18:02;4.47;;;1.08;;
70505;SDS011;58032;49.820;6.274;2022-12-18T01:20:32;4.28;;;1.40;;
70505;SDS011;58032;49.820;6.274;2022-12-18T01:22:59;7.57;;;1.40;;
70505;SDS011;58032;49.820;6.274;2022-12-18T01:25:26;5.80;;;1.25;;
70505;SDS011;58032;49.820;6.274;2022-12-18T01:27:53;3.20;;;1.08;;
70505;SDS011;58032;49.820;6.274;2022-12-18T01:30:19;4.93;;;1.52;;
70505;SDS011;58032;49.820;6.274;2022-12-18T01:32:46;5.50;;;1.95;;
70505;SDS011;58032;49.820;6.274;2022-12-18T01:35:14;5.40;;;1.77;;
70505;SDS011;58032;49.820;6.274;2022-12-18T01:37:40;3.28;;;1.20;;
70505;SDS011;58032;49.820;6.274;2022-12-18T01:40:07;6.75;;;1.70;;
70505;SDS011;58032;49.820;6.274;2022-12-18T01:42:35;8.30;;;1.85;;
70505;SDS011;58032;49.820;6.274;2022-12-18T01:49:59;5.22;;;1.35;;
70505;SDS011;58032;49.820;6.274;2022-12-18T01:52:31;3.88;;;1.00;;
70505;SDS011;58032;49.820;6.274;2022-12-18T01:55:00;9.50;;;2.33;;
70505;SDS011;58032;49.820;6.274;2022-12-18T01:57:29;3.10;;;1.35;;
70505;SDS011;58032;49.820;6.274;2022-12-18T01:59:59;4.50;;;2.00;;
70505;SDS011;58032;49.820;6.274;2022-12-18T02:02:38;2.97;;;0.98;;
70505;SDS011;58032;49.820;6.274;2022-12-18T02:05:11;5.38;;;1.60;;
70505;SDS011;58032;49.820;6.274;2022-12-18T02:10:18;5.22;;;0.95;;
70505;SDS011;58032;49.820;6.274;2022-12-18T02:12:53;1.17;;;0.30;;
70505;SDS011;58032;49.820;6.274;2022-12-18T02:15:32;2.95;;;1.15;;
70505;SDS011;58032;49.820;6.274;2022-12-18T02:23:47;4.60;;;1.13;;
70505;SDS011;58032;49.820;6.274;2022-12-18T02:26:56;3.53;;;1.33;;
70505;SDS011;58032;49.820;6.274;2022-12-18T02:29:21;5.10;;;1.38;;
70505;SDS011;58032;49.820;6.274;2022-12-18T02:31:57;1.70;;;0.60;;
70505;SDS011;58032;49.820;6.274;2022-12-18T02:34:28;7.30;;;1.98;;
70505;SDS011;58032;49.820;6.274;2022-12-18T02:36:58;7.82;;;2.70;;
70505;SDS011;58032;49.820;6.274;2022-12-18T02:39:29;10.77;;;2.60;;
70505;SDS011;58032;49.820;6.274;2022-12-18T02:42:02;3.75;;;1.20;;
70505;SDS011;58032;49.820;6.274;2022-12-18T02:44:35;5.97;;;1.50;;
70505;SDS011;58032;49.820;6.274;2022-12-18T02:47:09;10.50;;;2.75;;
70505;SDS011;58032;49.820;6.274;2022-12-18T02:52:18;7.37;;;2.87;;
70505;SDS011;58032;49.820;6.274;2022-12-18T02:54:56;5.32;;;2.25;;
70505;SDS011;58032;49.820;6.274;2022-12-18T02:57:36;6.00;;;2.20;;
70505;SDS011;58032;49.820;6.274;2022-12-18T03:00:14;4.57;;;1.88;;
70505;SDS011;58032;49.820;6.274;2022-12-18T03:02:59;4.72;;;1.20;;
70505;SDS011;58032;49.820;6.274;2022-12-18T03:05:35;4.97;;;1.63;;
70505;SDS011;58032;49.820;6.274;2022-12-18T03:08:07;7.95;;;1.92;;
70505;SDS011;58032;49.820;6.274;2022-12-18T03:10:41;7.65;;;2.30;;
70505;SDS011;58032;49.820;6.274;2022-12-18T03:13:22;7.20;;;2.22;;
70505;SDS011;58032;49.820;6.274;2022-12-18T03:15:54;4.47;;;1.73;;
70505;SDS011;58032;49.820;6.274;2022-12-18T03:18:36;4.60;;;1.67;;
70505;SDS011;58032;49.820;6.274;2022-12-18T03:21:09;6.40;;;2.17;;
70505;SDS011;58032;49.820;6.274;2022-12-18T03:23:40;8.98;;;3.28;;
70505;SDS011;58032;49.820;6.274;2022-12-18T03:26:14;7.88;;;2.75;;
70505;SDS011;58032;49.820;6.274;2022-12-18T03:28:56;7.05;;;2.63;;
70505;SDS011;58032;49.820;6.274;2022-12-18T03:31:34;3.87;;;1.67;;
70505;SDS011;58032;49.820;6.274;2022-12-18T03:34:04;4.40;;;1.55;;
70505;SDS011;58032;49.820;6.274;2022-12-18T03:36:42;6.07;;;2.58;;
70505;SDS011;58032;49.820;6.274;2022-12-18T03:39:10;8.60;;;2.22;;
70505;SDS011;58032;49.820;6.274;2022-12-18T03:41:51;8.10;;;1.90;;
70505;SDS011;58032;49.820;6.274;2022-12-18T03:47:52;10.60;;;1.83;;
70505;SDS011;58032;49.820;6.274;2022-12-18T03:50:45;7.78;;;2.63;;
70505;SDS011;58032;49.820;6.274;2022-12-18T03:56:04;7.75;;;1.95;;
70505;SDS011;58032;49.820;6.274;2022-12-18T03:58:37;9.47;;;2.97;;
70505;SDS011;58032;49.820;6.274;2022-12-18T04:01:15;3.90;;;1.75;;
70505;SDS011;58032;49.820;6.274;2022-12-18T04:03:43;5.97;;;2.47;;
70505;SDS011;58032;49.820;6.274;2022-12-18T04:06:12;7.78;;;2.25;;
70505;SDS011;58032;49.820;6.274;2022-12-18T04:08:42;10.05;;;2.10;;
70505;SDS011;58032;49.820;6.274;2022-12-18T04:11:14;8.13;;;2.17;;
70505;SDS011;58032;49.820;6.274;2022-12-18T04:13:44;8.73;;;2.67;;
70505;SDS011;58032;49.820;6.274;2022-12-18T04:16:18;7.57;;;3.13;;
70505;SDS011;58032;49.820;6.274;2022-12-18T04:18:48;9.27;;;3.15;;
70505;SDS011;58032;49.820;6.274;2022-12-18T04:21:15;12.98;;;3.88;;
70505;SDS011;58032;49.820;6.274;2022-12-18T04:23:42;10.00;;;3.43;;
70505;SDS011;58032;49.820;6.274;2022-12-18T04:26:09;10.63;;;3.70;;
70505;SDS011;58032;49.820;6.274;2022-12-18T04:28:58;5.20;;;2.17;;
70505;SDS011;58032;49.820;6.274;2022-12-18T04:31:24;7.03;;;2.25;;
70505;SDS011;58032;49.820;6.274;2022-12-18T04:33:52;4.82;;;1.83;;
70505;SDS011;58032;49.820;6.274;2022-12-18T04:36:19;3.27;;;1.23;;
70505;SDS011;58032;49.820;6.274;2022-12-18T04:38:46;6.60;;;1.75;;
70505;SDS011;58032;49.820;6.274;2022-12-18T04:41:15;8.57;;;3.00;;
70505;SDS011;58032;49.820;6.274;2022-12-18T04:43:45;11.45;;;3.47;;
70505;SDS011;58032;49.820;6.274;2022-12-18T04:46:12;7.40;;;3.05;;
70505;SDS011;58032;49.820;6.274;2022-12-18T04:48:39;6.83;;;2.03;;
70505;SDS011;58032;49.820;6.274;2022-12-18T04:51:06;6.75;;;2.33;;
70505;SDS011;58032;49.820;6.274;2022-12-18T04:53:33;6.80;;;2.75;;
70505;SDS011;58032;49.820;6.274;2022-12-18T04:58:39;6.78;;;2.42;;
70505;SDS011;58032;49.820;6.274;2022-12-18T05:01:06;6.73;;;2.57;;
70505;SDS011;58032;49.820;6.274;2022-12-18T05:03:34;2.08;;;0.75;;
70505;SDS011;58032;49.820;6.274;2022-12-18T05:06:02;7.07;;;1.48;;
70505;SDS011;58032;49.820;6.274;2022-12-18T05:08:30;5.07;;;2.25;;
70505;SDS011;58032;49.820;6.274;2022-12-18T05:10:58;6.57;;;2.33;;
70505;SDS011;58032;49.820;6.274;2022-12-18T05:13:26;5.63;;;2.17;;
70505;SDS011;58032;49.820;6.274;2022-12-18T05:15:54;3.22;;;1.70;;
70505;SDS011;58032;49.820;6.274;2022-12-18T05:18:22;7.43;;;2.67;;
70505;SDS011;58032;49.820;6.274;2022-12-18T05:20:50;7.55;;;2.08;;
70505;SDS011;58032;49.820;6.274;2022-12-18T05:23:18;6.53;;;1.83;;
70505;SDS011;58032;49.820;6.274;2022-12-18T05:25:53;5.80;;;2.40;;
70505;SDS011;58032;49.820;6.274;2022-12-18T05:28:22;7.65;;;2.33;;
70505;SDS011;58032;49.820;6.274;2022-12-18T05:30:51;4.97;;;2.17;;
70505;SDS011;58032;49.820;6.274;2022-12-18T05:33:20;6.38;;;1.88;;
70505;SDS011;58032;49.820;6.274;2022-12-18T05:35:51;6.15;;;2.58;;
70505;SDS011;58032;49.820;6.274;2022-12-18T05:38:21;4.70;;;1.77;;
70505;SDS011;58032;49.820;6.274;2022-12-18T05:40:50;4.80;;;1.30;;
70505;SDS011;58032;49.820;6.274;2022-12-18T05:43:18;5.38;;;2.25;;
70505;SDS011;58032;49.820;6.274;2022-12-18T05:45:49;5.80;;;1.55;;
70505;SDS011;58032;49.820;6.274;2022-12-18T05:48:17;7.17;;;2.13;;
70505;SDS011;58032;49.820;6.274;2022-12-18T05:50:45;6.55;;;2.58;;
70505;SDS011;58032;49.820;6.274;2022-12-18T05:53:17;6.35;;;2.47;;
70505;SDS011;58032;49.820;6.274;2022-12-18T05:55:46;4.45;;;2.10;;
70505;SDS011;58032;49.820;6.274;2022-12-18T05:58:14;4.85;;;2.20;;
70505;SDS011;58032;49.820;6.274;2022-12-18T06:00:42;4.70;;;1.90;;
70505;SDS011;58032;49.820;6.274;2022-12-18T06:03:11;5.22;;;1.52;;
70505;SDS011;58032;49.820;6.274;2022-12-18T06:05:40;8.75;;;3.47;;
70505;SDS011;58032;49.820;6.274;2022-12-18T06:08:09;2.63;;;1.48;;
70505;SDS011;58032;49.820;6.274;2022-12-18T06:10:37;4.72;;;1.90;;
70505;SDS011;58032;49.820;6.274;2022-12-18T06:13:04;10.70;;;2.23;;
70505;SDS011;58032;49.820;6.274;2022-12-18T06:15:32;9.27;;;3.17;;
70505;SDS011;58032;49.820;6.274;2022-12-18T06:18:00;8.32;;;2.45;;
70505;SDS011;58032;49.820;6.274;2022-12-18T06:20:27;12.13;;;3.00;;
70505;SDS011;58032;49.820;6.274;2022-12-18T06:22:57;6.35;;;2.95;;
70505;SDS011;58032;49.820;6.274;2022-12-18T06:25:24;6.63;;;2.30;;
70505;SDS011;58032;49.820;6.274;2022-12-18T06:27:51;3.65;;;1.25;;
70505;SDS011;58032;49.820;6.274;2022-12-18T06:30:18;7.60;;;2.53;;
70505;SDS011;58032;49.820;6.274;2022-12-18T06:32:45;6.80;;;2.08;;
70505;SDS011;58032;49.820;6.274;2022-12-18T06:35:13;4.32;;;1.35;;
70505;SDS011;58032;49.820;6.274;2022-12-18T06:37:40;6.57;;;2.33;;
70505;SDS011;58032;49.820;6.274;2022-12-18T06:40:07;8.15;;;3.35;;
70505;SDS011;58032;49.820;6.274;2022-12-18T06:42:34;6.68;;;2.67;;
70505;SDS011;58032;49.820;6.274;2022-12-18T06:45:00;7.15;;;3.42;;
70505;SDS011;58032;49.820;6.274;2022-12-18T06:47:27;7.90;;;2.55;;
70505;SDS011;58032;49.820;6.274;2022-12-18T06:49:54;6.93;;;2.97;;
70505;SDS011;58032;49.820;6.274;2022-12-18T06:52:21;6.10;;;2.88;;
70505;SDS011;58032;49.820;6.274;2022-12-18T06:54:48;9.75;;;2.25;;
70505;SDS011;58032;49.820;6.274;2022-12-18T06:57:15;8.40;;;3.00;;
70505;SDS011;58032;49.820;6.274;2022-12-18T06:59:41;9.10;;;3.35;;
70505;SDS011;58032;49.820;6.274;2022-12-18T07:02:10;4.37;;;1.77;;
70505;SDS011;58032;49.820;6.274;2022-12-18T07:04:38;4.38;;;1.77;;
70505;SDS011;58032;49.820;6.274;2022-12-18T07:07:05;8.27;;;2.67;;
70505;SDS011;58032;49.820;6.274;2022-12-18T07:09:32;9.15;;;2.78;;
70505;SDS011;58032;49.820;6.274;2022-12-18T07:11:59;12.27;;;4.00;;
70505;SDS011;58032;49.820;6.274;2022-12-18T07:14:26;9.83;;;3.73;;
70505;SDS011;58032;49.820;6.274;2022-12-18T07:16:53;8.00;;;3.28;;
70505;SDS011;58032;49.820;6.274;2022-12-18T07:19:20;4.50;;;1.80;;
70505;SDS011;58032;49.820;6.274;2022-12-18T07:21:50;6.13;;;2.58;;
70505;SDS011;58032;49.820;6.274;2022-12-18T07:24:17;10.18;;;3.65;;
70505;SDS011;58032;49.820;6.274;2022-12-18T07:26:47;8.80;;;3.13;;
70505;SDS011;58032;49.820;6.274;2022-12-18T07:29:14;8.95;;;3.13;;
70505;SDS011;58032;49.820;6.274;2022-12-18T07:31:41;12.02;;;3.63;;
70505;SDS011;58032;49.820;6.274;2022-12-18T07:34:12;14.93;;;5.00;;
70505;SDS011;58032;49.820;6.274;2022-12-18T07:36:40;9.13;;;4.27;;
70505;SDS011;58032;49.820;6.274;2022-12-18T07:39:07;8.65;;;3.05;;
70505;SDS011;58032;49.820;6.274;2022-12-18T07:41:34;12.32;;;3.33;;
70505;SDS011;58032;49.820;6.274;2022-12-18T07:44:11;9.82;;;3.72;;
70505;SDS011;58032;49.820;6.274;2022-12-18T07:46:38;10.45;;;4.10;;
70505;SDS011;58032;49.820;6.274;2022-12-18T07:49:05;8.13;;;3.50;;
70505;SDS011;58032;49.820;6.274;2022-12-18T07:51:32;10.07;;;3.72;;
70505;SDS011;58032;49.820;6.274;2022-12-18T07:53:59;13.95;;;4.30;;
70505;SDS011;58032;49.820;6.274;2022-12-18T07:56:26;11.02;;;4.10;;
70505;SDS011;58032;49.820;6.274;2022-12-18T07:58:54;11.93;;;3.05;;
70505;SDS011;58032;49.820;6.274;2022-12-18T08:01:21;6.33;;;2.67;;
70505;SDS011;58032;49.820;6.274;2022-12-18T08:03:48;9.25;;;2.40;;
70505;SDS011;58032;49.820;6.274;2022-12-18T08:06:15;7.63;;;1.27;;
70505;SDS011;58032;49.820;6.274;2022-12-18T08:08:42;7.15;;;2.83;;
70505;SDS011;58032;49.820;6.274;2022-12-18T08:11:08;11.90;;;4.60;;
70505;SDS011;58032;49.820;6.274;2022-12-18T08:13:35;10.93;;;3.60;;
70505;SDS011;58032;49.820;6.274;2022-12-18T08:16:03;8.00;;;3.10;;
70505;SDS011;58032;49.820;6.274;2022-12-18T08:18:32;13.20;;;3.55;;
70505;SDS011;58032;49.820;6.274;2022-12-18T08:21:10;9.63;;;2.72;;
70505;SDS011;58032;49.820;6.274;2022-12-18T08:23:41;7.20;;;3.88;;
70505;SDS011;58032;49.820;6.274;2022-12-18T08:26:09;12.57;;;4.17;;
70505;SDS011;58032;49.820;6.274;2022-12-18T08:28:37;11.65;;;5.28;;
70505;SDS011;58032;49.820;6.274;2022-12-18T08:31:05;13.45;;;4.82;;
70505;SDS011;58032;49.820;6.274;2022-12-18T08:33:32;12.60;;;4.28;;
70505;SDS011;58032;49.820;6.274;2022-12-18T08:36:00;11.30;;;3.88;;
70505;SDS011;58032;49.820;6.274;2022-12-18T08:38:27;5.53;;;2.50;;
70505;SDS011;58032;49.820;6.274;2022-12-18T08:43:29;7.78;;;3.42;;
70505;SDS011;58032;49.820;6.274;2022-12-18T08:46:16;9.63;;;2.42;;
70505;SDS011;58032;49.820;6.274;2022-12-18T08:48:44;10.48;;;4.28;;
70505;SDS011;58032;49.820;6.274;2022-12-18T08:51:10;19.63;;;5.90;;
70505;SDS011;58032;49.820;6.274;2022-12-18T08:53:37;14.30;;;4.82;;
70505;SDS011;58032;49.820;6.274;2022-12-18T08:56:05;9.48;;;3.95;;
70505;SDS011;58032;49.820;6.274;2022-12-18T08:58:32;9.98;;;4.55;;
70505;SDS011;58032;49.820;6.274;2022-12-18T09:00:59;9.93;;;3.83;;
70505;SDS011;58032;49.820;6.274;2022-12-18T09:03:28;9.47;;;3.97;;
70505;SDS011;58032;49.820;6.274;2022-12-18T09:05:55;10.27;;;5.00;;
70505;SDS011;58032;49.820;6.274;2022-12-18T09:08:21;12.10;;;4.22;;
70505;SDS011;58032;49.820;6.274;2022-12-18T09:10:49;12.18;;;5.07;;
70505;SDS011;58032;49.820;6.274;2022-12-18T09:13:18;11.00;;;4.88;;
70505;SDS011;58032;49.820;6.274;2022-12-18T09:15:46;7.53;;;2.93;;
70505;SDS011;58032;49.820;6.274;2022-12-18T09:18:16;10.90;;;5.22;;
70505;SDS011;58032;49.820;6.274;2022-12-18T09:20:44;7.20;;;2.72;;
70505;SDS011;58032;49.820;6.274;2022-12-18T09:23:12;10.82;;;5.05;;
70505;SDS011;58032;49.820;6.274;2022-12-18T09:25:39;11.43;;;4.72;;
70505;SDS011;58032;49.820;6.274;2022-12-18T09:28:11;14.13;;;5.33;;
70505;SDS011;58032;49.820;6.274;2022-12-18T09:30:44;8.57;;;3.45;;
70505;SDS011;58032;49.820;6.274;2022-12-18T09:33:13;16.23;;;6.70;;
70505;SDS011;58032;49.820;6.274;2022-12-18T09:35:40;17.52;;;6.32;;
70505;SDS011;58032;49.820;6.274;2022-12-18T09:38:11;17.40;;;6.20;;
70505;SDS011;58032;49.820;6.274;2022-12-18T09:40:43;16.30;;;5.80;;
70505;SDS011;58032;49.820;6.274;2022-12-18T09:43:18;17.67;;;6.10;;
70505;SDS011;58032;49.820;6.274;2022-12-18T09:45:52;12.80;;;4.65;;
70505;SDS011;58032;49.820;6.274;2022-12-18T09:48:58;7.90;;;3.17;;
70505;SDS011;58032;49.820;6.274;2022-12-18T09:51:19;12.10;;;4.38;;
70505;SDS011;58032;49.820;6.274;2022-12-18T09:53:55;9.67;;;3.27;;
70505;SDS011;58032;49.820;6.274;2022-12-18T09:56:28;11.63;;;5.05;;
70505;SDS011;58032;49.820;6.274;2022-12-18T09:59:02;16.17;;;5.95;;
70505;SDS011;58032;49.820;6.274;2022-12-18T10:01:31;13.32;;;5.35;;
70505;SDS011;58032;49.820;6.274;2022-12-18T10:04:04;13.55;;;4.75;;
70505;SDS011;58032;49.820;6.274;2022-12-18T10:09:44;14.18;;;4.97;;
70505;SDS011;58032;49.820;6.274;2022-12-18T10:12:37;17.67;;;5.95;;
70505;SDS011;58032;49.820;6.274;2022-12-18T10:18:13;21.92;;;8.10;;
70505;SDS011;58032;49.820;6.274;2022-12-18T10:20:54;19.67;;;6.57;;
70505;SDS011;58032;49.820;6.274;2022-12-18T10:26:03;17.25;;;6.90;;
70505;SDS011;58032;49.820;6.274;2022-12-18T10:28:31;20.10;;;8.85;;
70505;SDS011;58032;49.820;6.274;2022-12-18T10:30:59;17.90;;;7.03;;
70505;SDS011;58032;49.820;6.274;2022-12-18T10:33:29;14.80;;;6.70;;
70505;SDS011;58032;49.820;6.274;2022-12-18T10:35:58;20.17;;;8.00;;
70505;SDS011;58032;49.820;6.274;2022-12-18T10:38:30;17.00;;;6.63;;
70505;SDS011;58032;49.820;6.274;2022-12-18T10:40:59;12.77;;;5.13;;
70505;SDS011;58032;49.820;6.274;2022-12-18T10:46:44;13.18;;;5.07;;
70505;SDS011;58032;49.820;6.274;2022-12-18T10:49:21;19.27;;;8.18;;
70505;SDS011;58032;49.820;6.274;2022-12-18T10:52:15;18.90;;;6.30;;
70505;SDS011;58032;49.820;6.274;2022-12-18T10:54:52;18.17;;;5.70;;
70505;SDS011;58032;49.820;6.274;2022-12-18T10:57:38;18.47;;;7.23;;
70505;SDS011;58032;49.820;6.274;2022-12-18T11:02:54;18.77;;;7.55;;
70505;SDS011;58032;49.820;6.274;2022-12-18T11:05:23;16.83;;;7.00;;
70505;SDS011;58032;49.820;6.274;2022-12-18T11:07:58;19.90;;;7.30;;
70505;SDS011;58032;49.820;6.274;2022-12-18T11:10:30;21.10;;;7.90;;
70505;SDS011;58032;49.820;6.274;2022-12-18T11:13:18;23.27;;;8.23;;
70505;SDS011;58032;49.820;6.274;2022-12-18T11:15:48;18.15;;;7.90;;
70505;SDS011;58032;49.820;6.274;2022-12-18T11:18:16;8.18;;;2.35;;
70505;SDS011;58032;49.820;6.274;2022-12-18T11:20:50;16.45;;;6.28;;
70505;SDS011;58032;49.820;6.274;2022-12-18T11:23:21;15.60;;;5.20;;
70505;SDS011;58032;49.820;6.274;2022-12-18T11:25:54;8.70;;;3.53;;
70505;SDS011;58032;49.820;6.274;2022-12-18T11:28:27;11.93;;;5.03;;
70505;SDS011;58032;49.820;6.274;2022-12-18T11:36:55;20.80;;;8.23;;
70505;SDS011;58032;49.820;6.274;2022-12-18T11:42:54;18.48;;;7.53;;
70505;SDS011;58032;49.820;6.274;2022-12-18T11:45:32;17.48;;;7.07;;
70505;SDS011;58032;49.820;6.274;2022-12-18T11:48:06;18.70;;;7.60;;
70505;SDS011;58032;49.820;6.274;2022-12-18T11:53:03;19.33;;;7.45;;
70505;SDS011;58032;49.820;6.274;2022-12-18T11:55:53;24.40;;;8.50;;
70505;SDS011;58032;49.820;6.274;2022-12-18T11:58:47;16.85;;;7.70;;
70505;SDS011;58032;49.820;6.274;2022-12-18T12:12:27;17.77;;;7.63;;
70505;SDS011;58032;49.820;6.274;2022-12-18T12:18:29;17.00;;;7.37;;
70505;SDS011;58032;49.820;6.274;2022-12-18T12:24:23;26.27;;;8.80;;
70505;SDS011;58032;49.820;6.274;2022-12-18T12:37:43;17.30;;;7.00;;
70505;SDS011;58032;49.820;6.274;2022-12-18T12:40:32;19.35;;;7.25;;
70505;SDS011;58032;49.820;6.274;2022-12-18T12:45:57;19.17;;;7.23;;
70505;SDS011;58032;49.820;6.274;2022-12-18T12:48:34;18.98;;;9.05;;
70505;SDS011;58032;49.820;6.274;2022-12-18T12:51:03;20.50;;;8.73;;
70505;SDS011;58032;49.820;6.274;2022-12-18T12:53:37;21.87;;;9.07;;
70505;SDS011;58032;49.820;6.274;2022-12-18T12:56:05;18.20;;;8.30;;
70505;SDS011;58032;49.820;6.274;2022-12-18T13:01:39;19.73;;;7.63;;
70505;SDS011;58032;49.820;6.274;2022-12-18T13:04:20;20.93;;;8.43;;
70505;SDS011;58032;49.820;6.274;2022-12-18T13:07:05;17.13;;;7.50;;
70505;SDS011;58032;49.820;6.274;2022-12-18T13:12:52;20.63;;;8.15;;
70505;SDS011;58032;49.820;6.274;2022-12-18T13:15:33;21.92;;;7.93;;
70505;SDS011;58032;49.820;6.274;2022-12-18T13:18:18;17.77;;;7.17;;
70505;SDS011;58032;49.820;6.274;2022-12-18T13:23:32;20.05;;;8.07;;
70505;SDS011;58032;49.820;6.274;2022-12-18T13:30:59;17.90;;;6.90;;
70505;SDS011;58032;49.820;6.274;2022-12-18T13:36:29;20.50;;;8.60;;
70505;SDS011;58032;49.820;6.274;2022-12-18T13:41:42;25.52;;;8.50;;
70505;SDS011;58032;49.820;6.274;2022-12-18T13:46:47;20.70;;;8.52;;
70505;SDS011;58032;49.820;6.274;2022-12-18T13:49:25;24.60;;;8.85;;
70505;SDS011;58032;49.820;6.274;2022-12-18T13:51:55;22.85;;;9.00;;
70505;SDS011;58032;49.820;6.274;2022-12-18T13:59:57;14.07;;;6.05;;
70505;SDS011;58032;49.820;6.274;2022-12-18T14:02:26;16.92;;;6.47;;
70505;SDS011;58032;49.820;6.274;2022-12-18T14:04:54;17.88;;;7.47;;
70505;SDS011;58032;49.820;6.274;2022-12-18T14:07:25;20.17;;;8.30;;
70505;SDS011;58032;49.820;6.274;2022-12-18T14:09:55;18.63;;;6.87;;
70505;SDS011;58032;49.820;6.274;2022-12-18T14:12:47;18.48;;;8.07;;
70505;SDS011;58032;49.820;6.274;2022-12-18T14:17:55;18.02;;;7.25;;
70505;SDS011;58032;49.820;6.274;2022-12-18T14:20:25;19.15;;;7.30;;
70505;SDS011;58032;49.820;6.274;2022-12-18T14:22:53;16.63;;;7.20;;
70505;SDS011;58032;49.820;6.274;2022-12-18T14:25:22;22.70;;;8.30;;
70505;SDS011;58032;49.820;6.274;2022-12-18T14:27:53;22.13;;;7.90;;
70505;SDS011;58032;49.820;6.274;2022-12-18T14:30:37;19.10;;;8.30;;
70505;SDS011;58032;49.820;6.274;2022-12-18T14:35:53;19.83;;;7.70;;
70505;SDS011;58032;49.820;6.274;2022-12-18T14:38:23;23.05;;;8.38;;
70505;SDS011;58032;49.820;6.274;2022-12-18T14:40:57;20.58;;;7.43;;
70505;SDS011;58032;49.820;6.274;2022-12-18T14:43:25;24.45;;;8.73;;
70505;SDS011;58032;49.820;6.274;2022-12-18T14:45:58;20.40;;;8.77;;
70505;SDS011;58032;49.820;6.274;2022-12-18T14:51:15;22.98;;;8.15;;
70505;SDS011;58032;49.820;6.274;2022-12-18T14:53:45;26.25;;;8.68;;
70505;SDS011;58032;49.820;6.274;2022-12-18T14:56:20;25.35;;;9.43;;
70505;SDS011;58032;49.820;6.274;2022-12-18T14:58:47;23.83;;;7.45;;
70505;SDS011;58032;49.820;6.274;2022-12-18T15:01:34;26.13;;;10.00;;
70505;SDS011;58032;49.820;6.274;2022-12-18T15:04:04;24.00;;;8.77;;
70505;SDS011;58032;49.820;6.274;2022-12-18T15:06:50;22.13;;;8.95;;
70505;SDS011;58032;49.820;6.274;2022-12-18T15:09:29;18.25;;;8.00;;
70505;SDS011;58032;49.820;6.274;2022-12-18T15:11:57;26.88;;;10.80;;
70505;SDS011;58032;49.820;6.274;2022-12-18T15:14:39;18.97;;;6.47;;
70505;SDS011;58032;49.820;6.274;2022-12-18T15:17:22;25.63;;;9.32;;
70505;SDS011;58032;49.820;6.274;2022-12-18T15:19:53;24.15;;;7.85;;
70505;SDS011;58032;49.820;6.274;2022-12-18T15:22:27;29.83;;;11.25;;
70505;SDS011;58032;49.820;6.274;2022-12-18T15:24:56;25.65;;;10.00;;
70505;SDS011;58032;49.820;6.274;2022-12-18T15:27:31;25.03;;;9.13;;
70505;SDS011;58032;49.820;6.274;2022-12-18T15:32:38;25.27;;;9.82;;
70505;SDS011;58032;49.820;6.274;2022-12-18T15:37:47;29.42;;;10.50;;
70505;SDS011;58032;49.820;6.274;2022-12-18T15:40:16;23.27;;;9.40;;
70505;SDS011;58032;49.820;6.274;2022-12-18T15:42:45;24.88;;;9.52;;
70505;SDS011;58032;49.820;6.274;2022-12-18T15:45:31;23.45;;;10.15;;
70505;SDS011;58032;49.820;6.274;2022-12-18T15:47:59;22.25;;;9.35;;
70505;SDS011;58032;49.820;6.274;2022-12-18T15:50:27;26.55;;;9.82;;
70505;SDS011;58032;49.820;6.274;2022-12-18T15:52:54;24.50;;;10.07;;
70505;SDS011;58032;49.820;6.274;2022-12-18T15:55:22;26.25;;;10.90;;
70505;SDS011;58032;49.820;6.274;2022-12-18T15:58:10;25.00;;;10.27;;
70505;SDS011;58032;49.820;6.274;2022-12-18T16:00:38;26.15;;;9.38;;
70505;SDS011;58032;49.820;6.274;2022-12-18T16:03:06;24.20;;;9.85;;
70505;SDS011;58032;49.820;6.274;2022-12-18T16:05:33;20.93;;;9.17;;
70505;SDS011;58032;49.820;6.274;2022-12-18T16:08:00;27.70;;;10.65;;
70505;SDS011;58032;49.820;6.274;2022-12-18T16:10:27;30.15;;;11.45;;
70505;SDS011;58032;49.820;6.274;2022-12-18T16:12:55;27.00;;;10.95;;
70505;SDS011;58032;49.820;6.274;2022-12-18T16:15:22;30.08;;;11.50;;
70505;SDS011;58032;49.820;6.274;2022-12-18T16:17:50;30.80;;;10.53;;
70505;SDS011;58032;49.820;6.274;2022-12-18T16:20:20;28.35;;;10.25;;
70505;SDS011;58032;49.820;6.274;2022-12-18T16:22:48;28.67;;;11.18;;
70505;SDS011;58032;49.820;6.274;2022-12-18T16:25:17;29.10;;;12.05;;
70505;SDS011;58032;49.820;6.274;2022-12-18T16:27:52;36.72;;;12.00;;
70505;SDS011;58032;49.820;6.274;2022-12-18T16:30:24;30.57;;;10.87;;
70505;SDS011;58032;49.820;6.274;2022-12-18T16:32:54;27.90;;;9.10;;
70505;SDS011;58032;49.820;6.274;2022-12-18T16:35:21;27.15;;;10.85;;
70505;SDS011;58032;49.820;6.274;2022-12-18T16:37:48;24.83;;;9.93;;
70505;SDS011;58032;49.820;6.274;2022-12-18T16:40:16;31.13;;;11.40;;
70505;SDS011;58032;49.820;6.274;2022-12-18T16:42:44;30.77;;;12.53;;
70505;SDS011;58032;49.820;6.274;2022-12-18T16:45:13;26.92;;;10.85;;
70505;SDS011;58032;49.820;6.274;2022-12-18T16:47:42;31.70;;;11.75;;
70505;SDS011;58032;49.820;6.274;2022-12-18T16:50:09;33.13;;;13.57;;
70505;SDS011;58032;49.820;6.274;2022-12-18T16:52:36;27.05;;;11.38;;
70505;SDS011;58032;49.820;6.274;2022-12-18T16:55:04;31.77;;;11.80;;
70505;SDS011;58032;49.820;6.274;2022-12-18T16:57:31;22.83;;;8.20;;
70505;SDS011;58032;49.820;6.274;2022-12-18T16:59:58;31.92;;;12.45;;
70505;SDS011;58032;49.820;6.274;2022-12-18T17:02:28;30.60;;;11.57;;
70505;SDS011;58032;49.820;6.274;2022-12-18T17:04:56;33.00;;;11.85;;
70505;SDS011;58032;49.820;6.274;2022-12-18T17:07:24;27.17;;;10.90;;
70505;SDS011;58032;49.820;6.274;2022-12-18T17:09:52;27.13;;;11.50;;